Time;durP1;ratioP1;P1;durP2;ratioP2;P2;SDS_P1;SDS_P2;PMS_P1;PMS_P2;Temp;Humidity;BMP_temperature;BMP_pressure;BME280_temperature;BME280_humidity;BME280_pressure;Samples;Min_cycle;Max_cycle;Signal;HPM_P1;HPM_P2
2023/01/01 00:01:43;;;;;;;7.73;4.73;;;7.60;99.90;;;;;;5083732;28;20182;-76
2023/01/01 00:04:15;;;;;;;8.97;4.27;;;7.60;99.90;;;;;;5065227;28;20183;-76
2023/01/01 00:06:42;;;;;;;5.70;4.67;;;7.70;99.90;;;;;;5047463;28;20317;-76
2023/01/01 00:11:53;;;;;;;6.17;4.23;;;7.70;99.90;;;;;;5059705;28;20563;-76
2023/01/01 00:14:21;;;;;;;5.33;3.90;;;7.70;99.90;;;;;;5066224;28;20194;-76
2023/01/01 00:16:47;;;;;;;6.43;4.83;;;7.70;99.90;;;;;;5065815;28;20190;-75
2023/01/01 00:19:14;;;;;;;5.50;4.47;;;7.70;99.90;;;;;;5049671;28;20207;-75
2023/01/01 00:21:40;;;;;;;5.67;4.77;;;7.80;99.90;;;;;;5066771;28;20263;-76
2023/01/01 00:24:07;;;;;;;5.60;4.30;;;7.80;99.90;;;;;;5046573;28;20199;-76
2023/01/01 00:26:34;;;;;;;5.70;4.30;;;7.90;99.90;;;;;;5051334;28;20648;-76
2023/01/01 00:29:00;;;;;;;7.90;4.80;;;8.00;99.90;;;;;;5066294;28;20218;-76
2023/01/01 00:31:27;;;;;;;5.93;4.57;;;8.10;99.90;;;;;;5066701;28;20214;-76
2023/01/01 00:33:55;;;;;;;6.30;4.63;;;8.10;99.90;;;;;;5082250;28;20210;-76
2023/01/01 00:36:25;;;;;;;8.83;5.47;;;8.10;99.90;;;;;;5066149;28;20197;-76
2023/01/01 00:38:52;;;;;;;10.13;4.60;;;8.10;99.90;;;;;;5066713;28;20211;-76
2023/01/01 00:41:19;;;;;;;6.53;4.63;;;8.10;99.90;;;;;;5083716;28;20179;-76
2023/01/01 00:43:46;;;;;;;5.40;4.30;;;8.10;99.90;;;;;;5049666;28;20191;-76
2023/01/01 00:46:13;;;;;;;6.47;4.47;;;8.00;99.90;;;;;;5050698;28;20175;-76
2023/01/01 00:48:40;;;;;;;6.97;4.77;;;8.00;99.90;;;;;;5071672;28;20190;-76
2023/01/01 00:51:07;;;;;;;8.23;5.07;;;7.90;99.90;;;;;;5053798;28;20190;-76
2023/01/01 00:53:33;;;;;;;7.90;4.93;;;7.90;99.90;;;;;;5071900;28;20198;-76
2023/01/01 00:55:59;;;;;;;5.93;4.57;;;7.90;99.90;;;;;;5053276;28;20212;-76
2023/01/01 00:58:26;;;;;;;5.73;4.40;;;7.90;99.90;;;;;;5071172;28;20203;-76
2023/01/01 01:00:54;;;;;;;6.43;4.27;;;7.90;99.90;;;;;;5054015;28;20186;-76
2023/01/01 01:03:27;;;;;;;7.67;5.10;;;7.90;99.90;;;;;;5069940;28;20543;-76
2023/01/01 01:05:59;;;;;;;7.63;4.57;;;7.90;99.90;;;;;;5071105;28;20221;-76
2023/01/01 01:08:27;;;;;;;5.57;4.70;;;7.90;99.90;;;;;;5087179;28;20257;-75
2023/01/01 01:10:54;;;;;;;6.93;5.10;;;7.90;99.90;;;;;;5087015;28;20340;-76
2023/01/01 01:13:21;;;;;;;8.50;5.17;;;7.90;99.90;;;;;;5072673;28;20183;-75
2023/01/01 01:15:48;;;;;;;8.83;5.73;;;7.80;99.90;;;;;;5069215;28;20183;-76
2023/01/01 01:18:14;;;;;;;6.97;5.07;;;7.90;99.90;;;;;;5069544;28;20242;-76
2023/01/01 01:20:49;;;;;;;10.13;5.47;;;7.90;99.90;;;;;;5071011;28;20221;-76
2023/01/01 01:23:16;;;;;;;7.73;5.60;;;7.90;99.90;;;;;;5069299;28;20215;-76
2023/01/01 01:25:42;;;;;;;8.43;5.47;;;7.90;99.90;;;;;;5069016;28;20187;-76
2023/01/01 01:28:09;;;;;;;7.97;5.70;;;7.90;99.90;;;;;;5051553;28;20582;-76
2023/01/01 01:30:38;;;;;;;7.60;5.83;;;8.00;99.90;;;;;;5070943;28;20183;-75
2023/01/01 01:33:05;;;;;;;8.27;5.43;;;7.90;99.90;;;;;;5074044;28;20230;-76
2023/01/01 01:35:32;;;;;;;8.03;5.87;;;7.90;99.90;;;;;;5032255;28;20198;-76
2023/01/01 01:37:59;;;;;;;9.50;5.73;;;7.90;99.90;;;;;;5048887;28;20207;-76
2023/01/01 01:40:25;;;;;;;10.50;6.33;;;7.90;99.90;;;;;;5032523;28;20587;-76
2023/01/01 01:42:51;;;;;;;7.00;5.83;;;7.90;99.90;;;;;;5032576;28;20264;-76
2023/01/01 01:45:19;;;;;;;8.17;6.00;;;7.90;99.90;;;;;;5048549;28;20632;-75
2023/01/01 01:47:58;;;;;;;6.77;5.17;;;7.90;99.90;;;;;;5053509;28;20186;-75
2023/01/01 01:50:32;;;;;;;8.37;4.67;;;7.80;99.90;;;;;;5085759;28;20183;-75
2023/01/01 01:53:08;;;;;;;6.73;5.37;;;7.80;99.90;;;;;;5068656;28;20948;-75
2023/01/01 01:55:42;;;;;;;7.77;5.43;;;7.90;99.90;;;;;;5063424;28;20643;-76
2023/01/01 01:58:13;;;;;;;6.90;5.13;;;7.90;99.90;;;;;;5048094;28;20576;-76
2023/01/01 02:00:40;;;;;;;7.63;5.40;;;7.80;99.90;;;;;;5032215;28;20192;-76
2023/01/01 02:03:23;;;;;;;7.53;5.50;;;7.80;99.90;;;;;;5051933;28;20190;-74
2023/01/01 02:05:51;;;;;;;8.10;5.50;;;7.80;99.90;;;;;;5051403;28;20548;-76
2023/01/01 02:08:19;;;;;;;6.50;5.30;;;7.70;99.90;;;;;;5069958;28;20182;-76
2023/01/01 02:10:45;;;;;;;7.20;5.70;;;7.70;99.90;;;;;;5050966;28;20932;-76
2023/01/01 02:13:14;;;;;;;6.70;5.40;;;7.70;99.90;;;;;;5081289;28;20191;-76
2023/01/01 02:16:12;;;;;;;9.07;5.60;;;7.70;99.90;;;;;;5049326;28;20192;-76
2023/01/01 02:18:59;;;;;;;6.07;5.00;;;7.80;99.90;;;;;;5049715;28;20218;-76
2023/01/01 02:21:42;;;;;;;7.13;5.60;;;7.80;99.90;;;;;;5076589;28;20189;-76
2023/01/01 02:25:10;;;;;;;8.67;5.50;;;7.80;99.90;;;;;;5085098;28;20189;-76
2023/01/01 02:27:47;;;;;;;6.47;5.03;;;7.70;99.90;;;;;;5010279;28;20196;-76
2023/01/01 02:30:15;;;;;;;6.97;5.27;;;7.70;99.90;;;;;;5084566;28;20306;-76
2023/01/01 02:33:08;;;;;;;6.47;5.20;;;7.70;99.90;;;;;;5069836;28;20209;-77
2023/01/01 02:35:55;;;;;;;6.60;5.00;;;7.60;99.90;;;;;;5067590;28;20324;-76
2023/01/01 02:38:40;;;;;;;7.03;5.27;;;7.60;99.90;;;;;;5063066;28;20205;-76
2023/01/01 02:41:12;;;;;;;8.73;5.50;;;7.50;99.90;;;;;;5031710;28;20192;-76
2023/01/01 02:43:41;;;;;;;9.50;5.57;;;7.50;99.90;;;;;;5049247;28;20184;-76
2023/01/01 02:46:11;;;;;;;7.43;5.70;;;7.50;99.90;;;;;;5047710;28;20188;-76
2023/01/01 02:48:50;;;;;;;7.53;5.50;;;7.50;99.90;;;;;;5048274;28;20623;-76
2023/01/01 02:51:43;;;;;;;7.60;5.00;;;7.40;99.90;;;;;;5047742;28;20677;-76
2023/01/01 02:54:18;;;;;;;7.90;6.07;;;7.50;99.90;;;;;;5054338;28;20524;-76
2023/01/01 02:57:15;;;;;;;10.10;7.07;;;7.50;99.90;;;;;;5035937;28;20274;-77
2023/01/01 03:03:11;;;;;;;9.53;7.87;;;7.40;99.90;;;;;;5048089;28;20184;-77
2023/01/01 03:09:07;;;;;;;11.53;7.50;;;7.40;99.90;;;;;;5052813;28;20179;-77
2023/01/01 03:12:14;;;;;;;9.97;7.50;;;7.40;99.90;;;;;;5079403;28;20236;-76
2023/01/01 03:15:00;;;;;;;13.37;8.20;;;7.40;99.90;;;;;;5069069;28;20202;-77
2023/01/01 03:17:40;;;;;;;10.63;8.10;;;7.30;99.90;;;;;;5050411;28;20206;-76
2023/01/01 03:20:20;;;;;;;10.90;8.03;;;7.40;99.90;;;;;;5069082;28;20213;-76
2023/01/01 03:22:52;;;;;;;14.00;8.73;;;7.40;99.90;;;;;;5069021;28;20186;-77
2023/01/01 03:25:31;;;;;;;9.60;7.57;;;7.40;99.90;;;;;;5050357;28;20540;-77
2023/01/01 03:28:24;;;;;;;11.30;7.70;;;7.40;99.90;;;;;;5068497;28;20664;-77
2023/01/01 03:30:53;;;;;;;10.13;7.50;;;7.40;99.90;;;;;;5067630;28;20187;-77
2023/01/01 03:33:55;;;;;;;9.07;6.93;;;7.40;99.90;;;;;;5080514;28;20205;-76
2023/01/01 03:36:29;;;;;;;9.40;7.33;;;7.50;99.90;;;;;;5050260;28;20551;-77
2023/01/01 03:39:29;;;;;;;10.67;7.53;;;7.50;99.90;;;;;;5067552;28;20891;-77
2023/01/01 03:42:35;;;;;;;12.97;8.47;;;7.50;99.90;;;;;;5068797;28;20608;-77
2023/01/01 03:45:24;;;;;;;10.47;7.80;;;7.50;99.90;;;;;;5068331;28;20183;-76
2023/01/01 03:47:51;;;;;;;9.70;7.63;;;7.50;99.90;;;;;;5067074;28;20190;-76
2023/01/01 03:50:26;;;;;;;10.93;7.67;;;7.50;99.90;;;;;;5084114;28;20281;-76
2023/01/01 03:53:32;;;;;;;9.30;7.10;;;7.40;99.90;;;;;;5083983;28;20559;-76
2023/01/01 03:56:33;;;;;;;11.00;7.80;;;7.40;99.90;;;;;;5080237;28;20190;-77
2023/01/01 03:59:29;;;;;;;12.33;7.43;;;7.40;99.90;;;;;;5050289;28;20210;-76
2023/01/01 04:02:03;;;;;;;9.90;8.13;;;7.40;99.90;;;;;;5084676;28;20178;-76
2023/01/01 04:04:30;;;;;;;9.97;8.00;;;7.40;99.90;;;;;;5066830;28;20604;-76
2023/01/01 04:06:57;;;;;;;12.00;8.27;;;7.50;99.90;;;;;;5029927;28;20286;-76
2023/01/01 04:09:31;;;;;;;14.43;8.23;;;7.50;99.90;;;;;;5030410;28;20206;-77
2023/01/01 04:12:02;;;;;;;10.73;8.23;;;7.50;99.90;;;;;;5053137;28;20197;-77
2023/01/01 04:14:41;;;;;;;11.73;8.63;;;7.40;99.90;;;;;;5066331;28;20551;-76
2023/01/01 04:17:10;;;;;;;11.13;8.20;;;7.40;99.90;;;;;;5083233;28;20232;-76
2023/01/01 04:19:37;;;;;;;11.07;8.53;;;7.40;99.90;;;;;;5068158;28;20619;-76
2023/01/01 04:22:04;;;;;;;12.00;8.83;;;7.50;99.90;;;;;;5069844;28;20210;-76
2023/01/01 04:24:31;;;;;;;10.20;8.03;;;7.50;99.90;;;;;;5054258;28;20213;-77
2023/01/01 04:26:57;;;;;;;12.27;8.63;;;7.60;99.90;;;;;;5070593;28;20208;-77
2023/01/01 04:29:23;;;;;;;11.70;8.57;;;7.60;99.90;;;;;;5071892;28;20179;-77
2023/01/01 04:31:50;;;;;;;10.40;8.27;;;7.60;99.90;;;;;;5054063;28;20228;-77
2023/01/01 04:34:17;;;;;;;11.07;8.40;;;7.60;99.90;;;;;;5072499;28;20274;-77
2023/01/01 04:36:43;;;;;;;13.90;9.10;;;7.60;99.90;;;;;;5070534;28;20186;-77
2023/01/01 04:39:09;;;;;;;11.93;9.23;;;7.60;99.90;;;;;;5070333;28;20206;-77
2023/01/01 04:41:36;;;;;;;13.63;8.83;;;7.60;99.90;;;;;;5065754;28;20219;-77
2023/01/01 04:44:02;;;;;;;11.47;8.67;;;7.60;99.90;;;;;;5033515;28;20183;-77
2023/01/01 04:46:29;;;;;;;12.00;8.43;;;7.60;99.90;;;;;;5033672;28;20180;-77
2023/01/01 04:48:55;;;;;;;11.53;8.40;;;7.60;99.90;;;;;;5052147;28;20629;-77
2023/01/01 04:51:22;;;;;;;11.50;8.47;;;7.60;99.90;;;;;;5052036;28;20270;-76
2023/01/01 04:53:48;;;;;;;11.60;8.50;;;7.60;99.90;;;;;;5052058;28;20668;-77
2023/01/01 04:56:21;;;;;;;11.03;8.03;;;7.60;99.90;;;;;;5059217;28;20184;-77
2023/01/01 04:58:48;;;;;;;13.00;7.80;;;7.60;99.90;;;;;;5051542;28;20203;-77
2023/01/01 05:01:23;;;;;;;9.40;7.50;;;7.60;99.90;;;;;;5051968;28;20179;-77
2023/01/01 05:03:49;;;;;;;11.70;7.77;;;7.70;99.90;;;;;;5051737;28;20171;-77
2023/01/01 05:06:18;;;;;;;11.97;7.47;;;7.70;99.90;;;;;;5049975;28;20183;-77
2023/01/01 05:08:48;;;;;;;10.93;7.07;;;7.70;99.90;;;;;;5062239;28;20179;-77
2023/01/01 05:11:18;;;;;;;8.40;7.03;;;7.60;99.90;;;;;;5070220;28;20185;-77
2023/01/01 05:13:49;;;;;;;10.10;7.60;;;7.60;99.90;;;;;;5069831;28;20191;-77
2023/01/01 05:16:20;;;;;;;12.17;6.67;;;7.60;99.90;;;;;;5052799;28;20670;-77
2023/01/01 05:18:47;;;;;;;9.27;7.10;;;7.60;99.90;;;;;;5053160;28;20580;-77
2023/01/01 05:21:20;;;;;;;10.40;7.23;;;7.60;99.90;;;;;;5070152;28;20194;-77
2023/01/01 05:23:47;;;;;;;11.27;6.40;;;7.60;99.90;;;;;;5052801;28;20234;-77
2023/01/01 05:26:23;;;;;;;8.83;6.80;;;7.60;99.90;;;;;;5053223;28;20269;-77
2023/01/01 05:28:50;;;;;;;9.20;6.40;;;7.60;99.90;;;;;;5069395;28;20183;-77
2023/01/01 05:31:22;;;;;;;10.17;6.67;;;7.60;99.90;;;;;;5052152;28;20194;-77
2023/01/01 05:33:51;;;;;;;8.50;6.73;;;7.70;99.90;;;;;;5067885;28;20701;-77
2023/01/01 05:36:25;;;;;;;8.33;6.70;;;7.90;99.90;;;;;;5069488;28;20182;-77
2023/01/01 05:38:52;;;;;;;8.60;6.73;;;7.90;99.90;;;;;;5066111;28;20219;-77
2023/01/01 05:41:20;;;;;;;8.23;6.67;;;7.90;99.90;;;;;;5056938;28;20175;-77
2023/01/01 05:43:48;;;;;;;11.77;7.07;;;7.90;99.90;;;;;;5070800;28;20182;-77
2023/01/01 05:46:21;;;;;;;9.83;6.73;;;7.90;99.90;;;;;;5070230;28;20208;-77
2023/01/01 05:48:49;;;;;;;8.00;5.90;;;7.90;99.90;;;;;;5052922;28;21107;-77
2023/01/01 05:51:22;;;;;;;8.37;5.87;;;7.90;99.90;;;;;;5069648;28;20183;-77
2023/01/01 05:53:49;;;;;;;6.27;5.23;;;7.90;99.90;;;;;;5069346;28;20277;-77
2023/01/01 05:56:17;;;;;;;7.43;6.10;;;8.00;99.90;;;;;;5068903;28;20659;-77
2023/01/01 05:58:45;;;;;;;8.77;5.80;;;8.00;99.90;;;;;;5070086;28;20293;-77
2023/01/01 06:01:23;;;;;;;8.77;6.10;;;8.10;99.90;;;;;;5069505;28;20190;-77
2023/01/01 06:03:50;;;;;;;6.70;5.33;;;8.10;99.90;;;;;;5081272;28;20186;-77
2023/01/01 06:06:23;;;;;;;9.53;5.97;;;8.10;99.90;;;;;;5062634;28;20175;-77
2023/01/01 06:08:53;;;;;;;6.73;5.43;;;8.10;99.90;;;;;;5085896;28;20183;-77
2023/01/01 06:11:20;;;;;;;7.30;5.83;;;8.10;99.90;;;;;;5052386;28;20344;-77
2023/01/01 06:13:50;;;;;;;9.67;6.43;;;8.20;99.90;;;;;;5069066;28;20187;-77
2023/01/01 06:16:16;;;;;;;10.00;6.60;;;8.10;99.90;;;;;;5068204;28;20533;-77
2023/01/01 06:18:43;;;;;;;7.47;5.87;;;8.20;99.90;;;;;;5069020;28;20241;-77
2023/01/01 06:21:16;;;;;;;9.43;6.30;;;8.20;99.90;;;;;;5068798;28;20499;-77
2023/01/01 06:23:43;;;;;;;8.90;6.60;;;8.20;99.90;;;;;;5068604;28;20728;-77
2023/01/01 06:26:20;;;;;;;9.87;6.77;;;8.30;99.90;;;;;;5069678;28;20185;-77
2023/01/01 06:28:48;;;;;;;9.67;7.27;;;8.30;99.90;;;;;;5069862;28;20215;-77
2023/01/01 06:31:18;;;;;;;8.37;6.60;;;8.30;99.90;;;;;;5068718;28;20230;-77
2023/01/01 06:33:46;;;;;;;9.73;7.40;;;8.40;99.90;;;;;;5052441;28;20191;-78
2023/01/01 06:36:17;;;;;;;11.23;7.63;;;8.50;99.90;;;;;;5031295;28;20222;-77
2023/01/01 06:38:46;;;;;;;10.60;7.13;;;8.50;99.90;;;;;;5065514;28;20302;-77
2023/01/01 06:41:20;;;;;;;9.13;6.87;;;8.50;99.90;;;;;;5068072;28;20186;-77
2023/01/01 06:43:47;;;;;;;9.43;7.70;;;8.60;99.90;;;;;;5084312;28;20282;-77
2023/01/01 06:46:25;;;;;;;7.97;6.93;;;8.70;99.90;;;;;;5068258;28;20341;-77
2023/01/01 06:49:01;;;;;;;9.47;7.73;;;8.70;99.90;;;;;;5068249;28;20187;-77
2023/01/01 06:51:37;;;;;;;10.87;8.37;;;8.80;99.90;;;;;;5068383;28;20223;-77
2023/01/01 06:54:04;;;;;;;9.57;7.43;;;8.90;99.90;;;;;;5063172;28;20232;-77
2023/01/01 06:56:31;;;;;;;9.87;7.50;;;8.90;99.90;;;;;;5060518;28;20789;-77
2023/01/01 06:58:58;;;;;;;9.47;7.73;;;9.00;99.90;;;;;;5051183;28;20203;-77
2023/01/01 07:01:29;;;;;;;8.67;7.30;;;9.00;99.90;;;;;;5068541;28;20171;-77
2023/01/01 07:04:00;;;;;;;10.13;8.50;;;9.10;99.90;;;;;;5068518;28;20183;-77
2023/01/01 07:06:29;;;;;;;11.77;8.40;;;9.10;99.90;;;;;;5077148;28;20175;-77
2023/01/01 07:08:56;;;;;;;9.30;8.03;;;9.20;99.90;;;;;;5068240;28;20792;-77
2023/01/01 07:11:26;;;;;;;9.80;8.00;;;9.20;99.90;;;;;;5068557;28;20247;-77
2023/01/01 07:13:53;;;;;;;10.33;8.13;;;9.30;99.90;;;;;;5068305;28;20644;-77
2023/01/01 07:16:21;;;;;;;10.50;7.40;;;9.40;99.90;;;;;;5067875;28;20183;-77
2023/01/01 07:18:49;;;;;;;10.87;8.10;;;9.40;99.90;;;;;;5084923;28;20218;-77
2023/01/01 07:21:38;;;;;;;11.33;8.30;;;9.50;99.90;;;;;;5084730;28;20178;-77
2023/01/01 07:24:08;;;;;;;12.07;8.20;;;9.50;99.90;;;;;;5084568;28;20190;-77
2023/01/01 07:26:35;;;;;;;8.90;7.10;;;9.50;99.90;;;;;;5084348;28;20175;-77
2023/01/01 07:29:01;;;;;;;12.30;8.07;;;9.60;99.90;;;;;;5054917;28;20240;-77
2023/01/01 07:31:27;;;;;;;13.47;7.57;;;9.60;99.90;;;;;;5067176;28;20193;-77
2023/01/01 07:33:54;;;;;;;8.30;6.60;;;9.70;99.90;;;;;;5068626;28;20193;-77
2023/01/01 07:36:20;;;;;;;7.83;6.73;;;9.70;99.90;;;;;;5068404;28;20190;-78
2023/01/01 07:38:47;;;;;;;8.07;6.90;;;9.80;99.90;;;;;;5050500;28;20257;-78
2023/01/01 07:41:13;;;;;;;8.40;7.03;;;10.10;99.90;;;;;;5062473;28;20201;-77
2023/01/01 07:43:39;;;;;;;9.67;7.03;;;10.40;99.90;;;;;;5050150;28;20190;-77
2023/01/01 07:46:06;;;;;;;9.50;7.47;;;10.40;99.90;;;;;;5067540;28;20240;-77
2023/01/01 07:48:32;;;;;;;12.53;7.27;;;10.20;99.90;;;;;;5063436;28;20186;-78
2023/01/01 07:51:02;;;;;;;10.67;7.37;;;10.20;99.90;;;;;;5083772;28;20183;-77
2023/01/01 07:53:28;;;;;;;8.90;6.83;;;10.10;99.90;;;;;;5069433;28;20251;-77
2023/01/01 07:55:54;;;;;;;9.53;7.27;;;10.10;99.90;;;;;;5049579;28;20294;-77
2023/01/01 07:58:21;;;;;;;10.67;7.57;;;10.10;99.90;;;;;;5066398;28;20603;-77
2023/01/01 08:00:48;;;;;;;10.50;7.70;;;10.10;99.90;;;;;;5050246;28;20194;-77
2023/01/01 08:03:15;;;;;;;10.27;7.00;;;10.10;99.90;;;;;;5055153;28;20183;-78
2023/01/01 08:05:42;;;;;;;11.50;7.53;;;10.20;99.90;;;;;;5064177;28;20190;-77
2023/01/01 08:08:10;;;;;;;10.77;7.77;;;10.20;99.90;;;;;;5067048;28;20185;-77
2023/01/01 08:10:36;;;;;;;13.13;7.23;;;10.30;99.90;;;;;;5078196;28;20208;-78
2023/01/01 08:13:07;;;;;;;9.67;7.20;;;10.30;99.90;;;;;;5046580;28;20187;-77
2023/01/01 08:15:35;;;;;;;9.17;7.13;;;10.30;99.90;;;;;;5066189;28;20182;-78
2023/01/01 08:18:04;;;;;;;10.23;7.00;;;10.40;99.90;;;;;;5071786;28;20614;-77
2023/01/01 08:20:32;;;;;;;9.90;6.93;;;10.40;99.90;;;;;;5048605;28;20206;-78
2023/01/01 08:22:59;;;;;;;9.00;6.90;;;10.40;99.90;;;;;;5030012;28;20188;-78
2023/01/01 08:25:25;;;;;;;9.87;7.20;;;10.50;99.90;;;;;;5052490;28;20213;-78
2023/01/01 08:27:51;;;;;;;9.87;7.63;;;10.50;99.90;;;;;;5083209;28;20232;-78
2023/01/01 08:30:18;;;;;;;9.33;7.07;;;10.50;99.90;;;;;;5068203;28;20178;-77
2023/01/01 08:32:44;;;;;;;8.23;6.73;;;10.60;99.90;;;;;;5066731;28;20518;-78
2023/01/01 08:35:11;;;;;;;8.87;6.90;;;10.70;99.90;;;;;;5066221;28;20194;-78
2023/01/01 08:37:37;;;;;;;7.97;6.13;;;10.80;99.90;;;;;;5068210;28;20237;-77
2023/01/01 08:40:04;;;;;;;10.60;6.50;;;10.80;99.90;;;;;;5061487;28;20182;-77
2023/01/01 08:42:30;;;;;;;9.20;7.00;;;10.90;99.90;;;;;;5050068;28;20182;-78
2023/01/01 08:44:56;;;;;;;11.17;6.87;;;10.90;99.90;;;;;;5067939;28;20252;-77
2023/01/01 08:47:26;;;;;;;7.07;5.90;;;11.00;99.90;;;;;;5049286;28;20182;-78
2023/01/01 08:49:53;;;;;;;10.03;6.73;;;11.10;99.90;;;;;;5068076;28;20262;-77
2023/01/01 08:52:20;;;;;;;10.73;6.13;;;11.20;99.90;;;;;;5050302;28;20221;-77
2023/01/01 08:54:46;;;;;;;11.30;6.07;;;11.50;99.90;;;;;;5049803;28;20229;-77
2023/01/01 08:57:13;;;;;;;11.23;6.10;;;11.70;99.90;;;;;;5030670;28;20206;-77
2023/01/01 08:59:40;;;;;;;8.60;5.73;;;11.70;99.90;;;;;;5047537;28;20190;-77
2023/01/01 09:02:07;;;;;;;8.77;6.13;;;11.60;99.90;;;;;;5035870;28;20175;-77
2023/01/01 09:04:33;;;;;;;11.87;5.87;;;11.70;99.90;;;;;;5065727;28;20256;-78
2023/01/01 09:07:00;;;;;;;7.47;5.83;;;11.90;99.90;;;;;;5049683;28;20183;-77
2023/01/01 09:09:26;;;;;;;12.43;6.73;;;12.10;99.90;;;;;;5053607;28;20294;-78
2023/01/01 09:12:00;;;;;;;9.93;6.30;;;12.40;99.90;;;;;;5071593;28;20179;-78
2023/01/01 09:14:26;;;;;;;14.60;6.73;;;12.40;99.90;;;;;;5049815;28;20180;-78
2023/01/01 09:16:53;;;;;;;13.03;7.37;;;12.40;99.90;;;;;;5033171;28;20179;-78
2023/01/01 09:19:19;;;;;;;13.27;7.00;;;12.30;99.90;;;;;;5049983;28;20199;-78
2023/01/01 09:21:45;;;;;;;13.37;7.27;;;12.20;99.90;;;;;;5033571;28;20270;-77
2023/01/01 09:24:12;;;;;;;15.70;6.77;;;12.20;99.90;;;;;;5049884;28;20199;-78
2023/01/01 09:26:38;;;;;;;12.57;6.57;;;12.30;99.90;;;;;;5059248;28;20175;-78
2023/01/01 09:29:05;;;;;;;9.97;6.23;;;12.30;99.90;;;;;;5069466;28;20178;-78
2023/01/01 09:31:31;;;;;;;11.30;6.20;;;12.60;99.90;;;;;;5070039;28;20944;-78
2023/01/01 09:34:00;;;;;;;12.93;6.33;;;12.90;99.90;;;;;;5051795;28;20187;-78
2023/01/01 09:36:30;;;;;;;10.63;6.30;;;12.80;99.90;;;;;;5050955;28;20366;-78
2023/01/01 09:38:59;;;;;;;17.70;6.03;;;13.00;99.90;;;;;;5063846;28;20203;-78
2023/01/01 09:41:50;;;;;;;9.13;6.03;;;13.10;99.90;;;;;;5071381;28;20198;-78
2023/01/01 09:44:53;;;;;;;14.10;7.13;;;12.90;99.90;;;;;;5069373;28;20179;-78
2023/01/01 09:47:43;;;;;;;12.63;6.60;;;13.00;99.90;;;;;;5052223;28;20189;-78
2023/01/01 09:50:16;;;;;;;13.50;6.00;;;13.20;99.90;;;;;;5056991;28;20179;-78
2023/01/01 09:52:50;;;;;;;10.83;5.90;;;13.20;99.90;;;;;;5059624;28;20233;-78
2023/01/01 09:55:37;;;;;;;11.20;5.63;;;13.00;99.90;;;;;;5078103;28;20183;-78
2023/01/01 09:58:04;;;;;;;9.97;5.87;;;13.00;99.90;;;;;;5052558;28;20698;-78
2023/01/01 10:00:33;;;;;;;11.07;6.03;;;13.20;99.90;;;;;;5086333;28;20313;-78
2023/01/01 10:03:26;;;;;;;13.27;5.90;;;13.20;99.90;;;;;;5033920;28;20184;-78
2023/01/01 10:06:00;;;;;;;12.50;6.27;;;13.30;99.90;;;;;;5032718;28;20183;-78
2023/01/01 10:09:03;;;;;;;10.03;5.87;;;13.60;99.90;;;;;;5051134;28;20184;-77
2023/01/01 10:12:00;;;;;;;12.23;5.93;;;13.70;99.90;;;;;;5014075;28;20658;-77
2023/01/01 10:14:45;;;;;;;13.57;6.47;;;13.50;99.90;;;;;;5075629;28;20269;-78
2023/01/01 10:17:31;;;;;;;10.03;6.37;;;13.50;99.90;;;;;;5070126;28;20540;-78
2023/01/01 10:20:06;;;;;;;11.33;6.30;;;13.50;99.90;;;;;;5069095;28;20193;-77
2023/01/01 10:22:43;;;;;;;12.03;5.90;;;13.60;99.90;;;;;;5069515;28;20614;-78
2023/01/01 10:25:28;;;;;;;11.30;5.67;;;13.50;99.90;;;;;;5069166;28;20195;-78
2023/01/01 10:28:14;;;;;;;7.77;5.60;;;13.60;99.90;;;;;;5068113;28;20547;-78
2023/01/01 10:30:41;;;;;;;11.50;5.90;;;13.70;99.90;;;;;;5051800;28;20182;-78
2023/01/01 10:33:13;;;;;;;8.80;5.20;;;13.60;99.90;;;;;;5077931;28;20593;-78
2023/01/01 10:35:49;;;;;;;14.33;5.67;;;13.60;99.90;;;;;;5051852;28;20186;-78
2023/01/01 10:38:26;;;;;;;12.40;5.80;;;13.80;99.90;;;;;;5069641;28;20263;-78
2023/01/01 10:41:08;;;;;;;12.63;5.70;;;14.00;99.90;;;;;;5085435;28;20255;-78
2023/01/01 10:43:34;;;;;;;11.43;6.00;;;14.00;99.90;;;;;;5068091;28;20270;-78
2023/01/01 10:46:03;;;;;;;10.40;6.20;;;13.90;99.90;;;;;;5067837;28;20181;-78
2023/01/01 10:48:34;;;;;;;9.77;6.20;;;13.90;99.90;;;;;;5068525;28;20286;-78
2023/01/01 10:51:06;;;;;;;10.27;5.97;;;13.90;99.90;;;;;;5061423;28;20655;-78
2023/01/01 10:53:41;;;;;;;9.73;5.60;;;14.00;99.90;;;;;;5069763;28;20663;-78
2023/01/01 10:56:16;;;;;;;8.70;6.00;;;14.10;99.90;;;;;;5067759;28;20741;-78
2023/01/01 10:58:53;;;;;;;12.20;5.93;;;14.20;99.90;;;;;;5051311;28;20205;-78
2023/01/01 11:01:23;;;;;;;8.43;6.10;;;14.30;99.90;;;;;;5051637;28;20171;-78
2023/01/01 11:04:19;;;;;;;9.27;5.37;;;14.40;99.90;;;;;;5067047;28;20470;-78
2023/01/01 11:06:47;;;;;;;10.40;5.53;;;14.40;99.90;;;;;;5059236;28;20668;-78
2023/01/01 11:09:27;;;;;;;14.43;6.40;;;14.40;99.90;;;;;;5067560;28;20190;-78
2023/01/01 11:12:20;;;;;;;9.17;5.80;;;14.40;99.90;;;;;;5069426;28;20191;-78
2023/01/01 11:14:54;;;;;;;11.10;6.23;;;14.40;99.90;;;;;;5067551;28;20178;-78
2023/01/01 11:17:23;;;;;;;10.97;6.20;;;14.40;99.90;;;;;;5068593;28;20258;-78
2023/01/01 11:19:52;;;;;;;10.37;5.80;;;14.50;99.90;;;;;;5084455;28;20275;-78
2023/01/01 11:22:49;;;;;;;11.93;5.83;;;14.70;99.90;;;;;;5067614;28;20202;-78
2023/01/01 11:25:24;;;;;;;9.93;6.17;;;14.80;99.90;;;;;;5054544;28;20238;-79
2023/01/01 11:27:52;;;;;;;11.47;5.83;;;14.80;99.90;;;;;;5047568;28;20175;-79
2023/01/01 11:30:25;;;;;;;10.83;6.03;;;14.90;99.90;;;;;;5030512;28;20188;-79
2023/01/01 11:33:02;;;;;;;10.43;6.10;;;15.00;99.90;;;;;;5041207;28;20396;-79
2023/01/01 11:35:47;;;;;;;14.70;6.37;;;15.00;99.90;;;;;;5065295;28;20182;-79
2023/01/01 11:38:20;;;;;;;11.67;6.27;;;14.90;99.90;;;;;;5047389;28;20699;-79
2023/01/01 11:40:51;;;;;;;7.77;5.67;;;14.80;99.90;;;;;;5031009;28;20175;-78
2023/01/01 11:43:27;;;;;;;14.40;5.83;;;14.90;99.90;;;;;;5030625;28;20211;-79
2023/01/01 11:45:57;;;;;;;9.80;6.33;;;14.90;99.90;;;;;;5046937;28;20179;-79
2023/01/01 11:48:32;;;;;;;9.90;6.10;;;15.10;99.90;;;;;;5056316;28;20196;-79
2023/01/01 11:51:04;;;;;;;11.67;6.30;;;15.30;99.90;;;;;;5065580;28;20179;-79
2023/01/01 11:53:36;;;;;;;11.77;6.77;;;15.30;99.90;;;;;;5067081;28;20175;-79
2023/01/01 11:56:20;;;;;;;14.10;6.40;;;15.30;99.90;;;;;;5050243;28;20182;-78
2023/01/01 11:59:13;;;;;;;15.00;6.63;;;15.20;99.90;;;;;;5050398;28;20209;-79
2023/01/01 12:01:56;;;;;;;12.83;6.30;;;15.20;99.90;;;;;;5067426;28;20179;-78
2023/01/01 12:05:07;;;;;;;10.73;6.37;;;15.30;99.90;;;;;;5084093;28;20183;-79
2023/01/01 12:07:38;;;;;;;14.43;6.17;;;15.50;99.90;;;;;;5066484;28;20183;-78
2023/01/01 12:10:19;;;;;;;11.67;5.63;;;15.60;99.90;;;;;;5050337;28;20183;-78
2023/01/01 12:13:22;;;;;;;8.80;5.87;;;15.50;99.90;;;;;;5047234;28;20179;-79
2023/01/01 12:16:01;;;;;;;11.60;6.50;;;15.60;99.90;;;;;;5063148;28;20186;-78
2023/01/01 12:18:57;;;;;;;11.13;6.43;;;15.70;99.90;;;;;;5046942;28;20240;-78
2023/01/01 12:21:28;;;;;;;15.17;6.90;;;15.80;99.90;;;;;;5048339;28;20180;-78
2023/01/01 12:23:55;;;;;;;11.53;6.57;;;15.70;99.90;;;;;;5047055;28;20246;-78
2023/01/01 12:27:19;;;;;;;12.47;5.73;;;15.90;99.90;;;;;;5048560;28;20179;-78
2023/01/01 12:30:04;;;;;;;10.40;6.47;;;15.80;99.90;;;;;;5005227;28;20609;-78
2023/01/01 12:33:07;;;;;;;12.40;6.40;;;15.60;99.90;;;;;;5069612;28;20227;-78
2023/01/01 12:36:21;;;;;;;12.87;5.93;;;15.50;99.90;;;;;;5049919;28;20300;-78
2023/01/01 12:38:50;;;;;;;12.77;6.77;;;15.50;99.90;;;;;;5050128;28;20305;-78
2023/01/01 12:41:38;;;;;;;13.07;7.07;;;15.40;99.90;;;;;;5067073;28;20622;-78
2023/01/01 12:45:00;;;;;;;11.03;6.00;;;15.30;99.90;;;;;;5054036;28;20567;-78
2023/01/01 12:47:39;;;;;;;14.93;6.27;;;15.40;99.90;;;;;;5012899;28;20172;-78
2023/01/01 12:50:17;;;;;;;10.73;7.17;;;15.30;99.90;;;;;;5029454;28;20292;-78
2023/01/01 12:52:55;;;;;;;15.83;7.73;;;15.20;99.90;;;;;;5043572;28;20637;-78
2023/01/01 12:55:41;;;;;;;8.53;6.50;;;15.10;99.90;;;;;;5078283;28;20273;-78
2023/01/01 12:58:25;;;;;;;12.17;7.00;;;15.00;99.90;;;;;;5071681;28;20206;-78
2023/01/01 13:01:19;;;;;;;12.20;6.63;;;15.00;99.90;;;;;;5070853;28;20183;-78
2023/01/01 13:03:55;;;;;;;12.00;6.23;;;15.10;99.90;;;;;;5070397;28;20197;-78
2023/01/01 13:06:41;;;;;;;12.77;6.57;;;15.10;99.90;;;;;;5069724;28;20186;-78
2023/01/01 13:09:22;;;;;;;16.03;7.03;;;15.00;99.90;;;;;;5071767;28;20664;-78
2023/01/01 13:12:05;;;;;;;10.80;6.80;;;15.00;99.90;;;;;;5053992;28;20202;-78
2023/01/01 13:14:42;;;;;;;14.50;7.00;;;14.90;99.90;;;;;;5053711;28;20174;-78
2023/01/01 13:17:28;;;;;;;12.90;6.17;;;14.90;99.90;;;;;;5067065;28;20194;-78
2023/01/01 13:20:22;;;;;;;14.37;7.27;;;14.80;99.90;;;;;;5051990;28;20261;-78
2023/01/01 13:22:48;;;;;;;18.73;7.20;;;14.80;99.90;;;;;;5050616;28;20218;-78
2023/01/01 13:25:15;;;;;;;13.70;6.40;;;14.70;99.90;;;;;;5033571;28;20594;-78
2023/01/01 13:27:56;;;;;;;10.70;6.60;;;14.70;99.90;;;;;;5038935;28;20201;-78
2023/01/01 13:30:35;;;;;;;10.10;6.90;;;14.70;99.90;;;;;;5060802;28;20175;-78
2023/01/01 13:33:33;;;;;;;14.70;7.43;;;14.60;99.90;;;;;;5062833;28;20263;-78